createdAt,value
2023-03-23T15:57:56.601Z,16.50
2023-03-23T16:00:26.350Z,16.33
2023-03-23T16:03:03.040Z,16.13
2023-03-23T16:05:31.889Z,15.98
2023-03-23T16:08:00.912Z,15.90
2023-03-23T16:10:33.466Z,15.81
2023-03-23T16:13:05.429Z,15.73
2023-03-23T16:15:33.808Z,15.61
2023-03-23T16:18:21.826Z,15.60
2023-03-23T16:20:50.337Z,15.55
2023-03-23T16:23:19.034Z,15.50
2023-03-23T16:25:48.844Z,15.46
2023-03-23T16:28:18.248Z,15.42
2023-03-23T16:30:49.344Z,15.38
2023-03-23T16:33:18.128Z,15.35
2023-03-23T16:35:46.716Z,15.32
2023-03-23T16:38:16.605Z,15.27
2023-03-23T16:40:46.065Z,15.22
2023-03-23T16:43:14.678Z,15.19
2023-03-23T16:45:46.045Z,15.17
2023-03-23T16:48:16.256Z,15.14
2023-03-23T16:50:45.354Z,15.11
2023-03-23T16:53:14.554Z,15.08
2023-03-23T16:55:47.969Z,15.04
2023-03-23T16:58:18.301Z,14.98
2023-03-23T17:00:51.716Z,14.93
2023-03-23T17:03:20.757Z,14.87
2023-03-23T17:05:51.411Z,14.80
2023-03-23T17:08:20.764Z,14.75
2023-03-23T17:10:54.019Z,14.69
2023-03-23T17:13:23.116Z,14.64
2023-03-23T17:15:53.207Z,14.59
2023-03-23T17:18:24.496Z,14.54
2023-03-23T17:20:53.698Z,14.50
2023-03-23T17:23:22.166Z,14.44
2023-03-23T17:25:50.854Z,14.37
2023-03-23T17:28:20.893Z,14.37
2023-03-23T17:30:51.847Z,14.36
2023-03-23T17:33:25.837Z,14.35
2023-03-23T17:35:55.270Z,14.31
2023-03-23T17:38:24.644Z,14.29
2023-03-23T17:40:59.179Z,14.26
2023-03-23T17:43:30.724Z,14.24
2023-03-23T17:45:59.104Z,14.22
2023-03-23T17:48:27.702Z,14.20
2023-03-23T17:51:00.166Z,14.18
2023-03-23T17:53:30.357Z,14.15
2023-03-23T17:56:07.436Z,14.11
2023-03-23T17:58:38.009Z,14.06
2023-03-23T18:01:07.033Z,14.02
2023-03-23T18:03:37.650Z,13.98
2023-03-23T18:06:08.516Z,13.94
2023-03-23T18:08:37.039Z,13.91
2023-03-23T18:11:07.724Z,13.86
2023-03-23T18:13:36.706Z,13.82
2023-03-23T18:16:06.869Z,13.79
2023-03-23T18:18:39.703Z,13.77
2023-03-23T18:21:09.314Z,13.74
2023-03-23T18:23:52.937Z,13.73
2023-03-23T18:26:27.683Z,13.71
2023-03-23T18:28:56.689Z,13.70
2023-03-23T18:31:25.357Z,13.69
2023-03-23T18:33:55.350Z,13.68
2023-03-23T18:36:25.919Z,13.68
2023-03-23T18:38:56.579Z,13.67
2023-03-23T18:41:25.359Z,13.67
2023-03-23T18:43:56.345Z,13.67
2023-03-23T18:46:26.998Z,13.66
2023-03-23T18:48:56.532Z,13.65
2023-03-23T18:51:26.350Z,13.64
2023-03-23T18:53:55.354Z,13.63
2023-03-23T18:56:23.833Z,13.61
2023-03-23T18:58:53.648Z,13.60
2023-03-23T19:01:22.875Z,13.58
2023-03-23T19:03:51.235Z,13.55
2023-03-23T19:06:24.865Z,13.54
2023-03-23T19:08:54.891Z,13.52
2023-03-23T19:11:27.886Z,13.48
2023-03-23T19:14:03.103Z,13.47
2023-03-23T19:16:34.246Z,13.45
2023-03-23T19:19:08.675Z,13.43
2023-03-23T19:21:39.823Z,13.40
2023-03-23T19:24:09.327Z,13.36
2023-03-23T19:26:40.567Z,13.32
2023-03-23T19:31:46.500Z,13.26
2023-03-23T19:34:16.078Z,13.22
2023-03-23T19:36:54.398Z,13.19
2023-03-23T19:39:25.234Z,13.16
2023-03-23T19:41:56.260Z,13.14
2023-03-23T19:44:25.461Z,13.06
2023-03-23T19:46:54.461Z,13.01
2023-03-23T19:49:22.923Z,13.02
2023-03-23T19:52:08.887Z,13.03
2023-03-23T19:54:39.491Z,13.02
2023-03-23T19:57:10.354Z,12.99
2023-03-23T19:59:39.349Z,12.93
2023-03-23T20:02:08.592Z,12.88
2023-03-23T20:04:40.194Z,12.90
2023-03-23T20:07:09.942Z,12.92
2023-03-23T20:09:39.150Z,12.92
2023-03-23T20:12:13.055Z,12.92
2023-03-23T20:14:45.125Z,12.84
2023-03-23T20:17:14.939Z,12.85
2023-03-23T20:19:45.462Z,12.83
2023-03-23T20:22:14.970Z,12.81
2023-03-23T20:24:47.397Z,12.78
2023-03-23T20:27:16.035Z,12.75
2023-03-23T20:29:45.177Z,12.71
2023-03-23T20:32:17.928Z,12.67
2023-03-23T20:34:49.580Z,12.62
2023-03-23T20:37:20.580Z,12.57
2023-03-23T20:39:51.557Z,12.55
2023-03-23T20:42:20.044Z,12.52
2023-03-23T20:44:49.047Z,12.52
2023-03-23T20:47:18.237Z,12.51
2023-03-23T20:49:53.134Z,12.48
2023-03-23T20:52:23.525Z,12.40
2023-03-23T20:54:55.097Z,12.41
2023-03-23T20:57:23.741Z,12.41
2023-03-23T20:59:53.665Z,12.41
2023-03-23T21:02:22.339Z,12.40
2023-03-23T21:04:53.224Z,12.38
2023-03-23T21:07:24.139Z,12.36
2023-03-23T21:09:52.917Z,12.34
2023-03-23T21:12:23.552Z,12.34
2023-03-23T21:14:52.656Z,12.33
2023-03-23T21:17:21.446Z,12.30
2023-03-23T21:19:58.122Z,12.30
2023-03-23T21:22:29.362Z,12.27
2023-03-23T21:24:59.390Z,12.25
2023-03-23T21:27:30.525Z,12.23
2023-03-23T21:30:02.518Z,12.21
2023-03-23T21:32:31.222Z,12.20
2023-03-23T21:35:03.038Z,12.18
2023-03-23T21:37:31.729Z,12.15
2023-03-23T21:40:01.843Z,12.09
2023-03-23T21:42:30.840Z,12.02
2023-03-23T21:45:03.019Z,11.95
2023-03-23T21:47:31.690Z,11.90
2023-03-23T21:50:00.298Z,11.85
2023-03-23T21:52:28.881Z,11.80
2023-03-23T21:54:59.709Z,11.73
2023-03-23T21:57:31.673Z,11.68
2023-03-23T22:00:15.125Z,11.63
2023-03-23T22:02:45.255Z,11.57
2023-03-23T22:05:13.817Z,11.52
2023-03-23T22:07:44.446Z,11.48
2023-03-23T22:10:14.773Z,11.44
2023-03-23T22:12:43.151Z,11.39
2023-03-23T22:15:18.493Z,11.36
2023-03-23T22:17:47.669Z,11.32
2023-03-23T22:20:16.281Z,11.29
2023-03-23T22:22:50.189Z,11.26
2023-03-23T22:25:19.495Z,11.23
2023-03-23T22:27:48.078Z,11.22
2023-03-23T22:30:18.104Z,11.21
2023-03-23T22:32:48.069Z,11.17
2023-03-23T22:35:16.811Z,11.14
2023-03-23T22:37:45.809Z,11.10
2023-03-23T22:40:14.288Z,11.05
2023-03-23T22:42:43.185Z,11.02
2023-03-23T22:45:12.097Z,11.01
2023-03-23T22:47:41.939Z,10.99
2023-03-23T22:50:11.198Z,10.99
2023-03-23T22:52:39.990Z,10.98
2023-03-23T22:55:09.046Z,10.97
2023-03-23T22:57:37.880Z,10.97
2023-03-23T23:00:15.081Z,10.98
2023-03-23T23:02:45.684Z,10.98
2023-03-23T23:05:14.278Z,10.97
2023-03-23T23:07:43.077Z,10.96
2023-03-23T23:10:11.855Z,10.97
2023-03-23T23:12:42.609Z,10.98
2023-03-23T23:15:20.802Z,10.99
2023-03-23T23:17:49.233Z,10.98
2023-03-23T23:20:19.101Z,10.97
2023-03-23T23:22:49.225Z,10.96
2023-03-23T23:25:18.008Z,10.94
2023-03-23T23:27:46.902Z,10.90
2023-03-23T23:30:16.822Z,10.88
2023-03-23T23:32:52.295Z,10.87
2023-03-23T23:35:26.435Z,10.83
2023-03-23T23:37:55.893Z,10.81
2023-03-23T23:40:24.366Z,10.81
2023-03-23T23:42:53.774Z,10.81
2023-03-23T23:45:22.868Z,10.80
2023-03-23T23:47:59.865Z,10.77
2023-03-23T23:50:28.558Z,10.76
2023-03-23T23:52:58.969Z,10.75
2023-03-23T23:55:27.657Z,10.75
2023-03-23T23:57:56.442Z,10.76
